sensor_id;sensor_type;location;lat;lon;timestamp;P1;durP1;ratioP1;P2;durP2;ratioP2
70733;SDS011;58320;48.804;9.252;2023-05-15T00:00:03;16.63;;;9.20;;
70733;SDS011;58320;48.804;9.252;2023-05-15T00:02:30;16.42;;;9.13;;
70733;SDS011;58320;48.804;9.252;2023-05-15T00:04:58;14.75;;;8.85;;
70733;SDS011;58320;48.804;9.252;2023-05-15T00:07:24;17.43;;;8.73;;
70733;SDS011;58320;48.804;9.252;2023-05-15T00:09:50;15.05;;;8.93;;
70733;SDS011;58320;48.804;9.252;2023-05-15T00:12:16;14.50;;;8.43;;
70733;SDS011;58320;48.804;9.252;2023-05-15T00:14:42;14.98;;;8.50;;
70733;SDS011;58320;48.804;9.252;2023-05-15T00:17:07;20.70;;;9.35;;
70733;SDS011;58320;48.804;9.252;2023-05-15T00:19:33;15.27;;;8.77;;
70733;SDS011;58320;48.804;9.252;2023-05-15T00:21:59;13.73;;;8.70;;
70733;SDS011;58320;48.804;9.252;2023-05-15T00:24:25;15.45;;;8.80;;
70733;SDS011;58320;48.804;9.252;2023-05-15T00:26:51;13.40;;;8.20;;
70733;SDS011;58320;48.804;9.252;2023-05-15T00:29:16;14.13;;;8.35;;
70733;SDS011;58320;48.804;9.252;2023-05-15T00:31:42;14.23;;;8.70;;
70733;SDS011;58320;48.804;9.252;2023-05-15T00:34:08;13.93;;;8.77;;
70733;SDS011;58320;48.804;9.252;2023-05-15T00:36:34;13.38;;;7.93;;
70733;SDS011;58320;48.804;9.252;2023-05-15T00:38:59;13.37;;;8.03;;
70733;SDS011;58320;48.804;9.252;2023-05-15T00:41:25;13.55;;;8.18;;
70733;SDS011;58320;48.804;9.252;2023-05-15T00:43:52;13.90;;;8.18;;
70733;SDS011;58320;48.804;9.252;2023-05-15T00:46:20;12.40;;;7.43;;
70733;SDS011;58320;48.804;9.252;2023-05-15T00:48:47;13.73;;;7.95;;
70733;SDS011;58320;48.804;9.252;2023-05-15T00:51:15;16.77;;;8.85;;
70733;SDS011;58320;48.804;9.252;2023-05-15T00:53:41;13.95;;;8.10;;
70733;SDS011;58320;48.804;9.252;2023-05-15T00:56:08;13.68;;;8.02;;
70733;SDS011;58320;48.804;9.252;2023-05-15T00:58:37;12.97;;;8.13;;
70733;SDS011;58320;48.804;9.252;2023-05-15T01:01:03;14.13;;;8.13;;
70733;SDS011;58320;48.804;9.252;2023-05-15T01:03:29;13.27;;;8.27;;
70733;SDS011;58320;48.804;9.252;2023-05-15T01:05:55;14.65;;;8.13;;
70733;SDS011;58320;48.804;9.252;2023-05-15T01:11:14;13.45;;;8.02;;
70733;SDS011;58320;48.804;9.252;2023-05-15T01:13:41;13.20;;;8.15;;
70733;SDS011;58320;48.804;9.252;2023-05-15T01:16:08;13.70;;;7.93;;
70733;SDS011;58320;48.804;9.252;2023-05-15T01:18:35;12.60;;;7.50;;
70733;SDS011;58320;48.804;9.252;2023-05-15T01:26:10;13.20;;;8.38;;
70733;SDS011;58320;48.804;9.252;2023-05-15T01:28:55;13.90;;;8.37;;
70733;SDS011;58320;48.804;9.252;2023-05-15T01:31:34;14.02;;;8.05;;
70733;SDS011;58320;48.804;9.252;2023-05-15T01:34:02;15.23;;;8.73;;
70733;SDS011;58320;48.804;9.252;2023-05-15T01:36:41;13.75;;;8.07;;
70733;SDS011;58320;48.804;9.252;2023-05-15T01:39:20;14.43;;;8.20;;
70733;SDS011;58320;48.804;9.252;2023-05-15T01:41:53;12.03;;;7.60;;
70733;SDS011;58320;48.804;9.252;2023-05-15T01:44:27;12.88;;;7.10;;
70733;SDS011;58320;48.804;9.252;2023-05-15T01:46:58;11.98;;;7.30;;
70733;SDS011;58320;48.804;9.252;2023-05-15T01:49:34;13.40;;;7.65;;
70733;SDS011;58320;48.804;9.252;2023-05-15T01:52:05;13.02;;;7.47;;
70733;SDS011;58320;48.804;9.252;2023-05-15T01:54:37;11.60;;;7.23;;
70733;SDS011;58320;48.804;9.252;2023-05-15T01:57:04;12.40;;;7.15;;
70733;SDS011;58320;48.804;9.252;2023-05-15T01:59:33;11.05;;;7.72;;
70733;SDS011;58320;48.804;9.252;2023-05-15T02:02:01;12.80;;;7.75;;
70733;SDS011;58320;48.804;9.252;2023-05-15T02:04:29;14.77;;;8.65;;
70733;SDS011;58320;48.804;9.252;2023-05-15T02:06:55;12.37;;;7.63;;
70733;SDS011;58320;48.804;9.252;2023-05-15T02:09:21;14.25;;;7.68;;
70733;SDS011;58320;48.804;9.252;2023-05-15T02:11:48;13.25;;;8.20;;
70733;SDS011;58320;48.804;9.252;2023-05-15T02:14:15;13.38;;;7.35;;
70733;SDS011;58320;48.804;9.252;2023-05-15T02:16:41;12.25;;;7.63;;
70733;SDS011;58320;48.804;9.252;2023-05-15T02:19:07;13.30;;;7.87;;
70733;SDS011;58320;48.804;9.252;2023-05-15T02:21:33;14.38;;;7.88;;
70733;SDS011;58320;48.804;9.252;2023-05-15T02:23:59;13.75;;;7.82;;
70733;SDS011;58320;48.804;9.252;2023-05-15T02:26:29;12.48;;;7.38;;
70733;SDS011;58320;48.804;9.252;2023-05-15T02:30:27;13.07;;;7.77;;
70733;SDS011;58320;48.804;9.252;2023-05-15T02:35:20;12.32;;;7.68;;
70733;SDS011;58320;48.804;9.252;2023-05-15T02:37:58;12.80;;;8.50;;
70733;SDS011;58320;48.804;9.252;2023-05-15T02:40:27;12.18;;;7.90;;
70733;SDS011;58320;48.804;9.252;2023-05-15T02:42:54;13.13;;;8.10;;
70733;SDS011;58320;48.804;9.252;2023-05-15T02:45:21;12.50;;;7.93;;
70733;SDS011;58320;48.804;9.252;2023-05-15T02:47:49;12.20;;;7.80;;
70733;SDS011;58320;48.804;9.252;2023-05-15T02:50:15;15.05;;;8.10;;
70733;SDS011;58320;48.804;9.252;2023-05-15T02:52:41;12.80;;;8.57;;
70733;SDS011;58320;48.804;9.252;2023-05-15T02:55:07;13.37;;;7.73;;
70733;SDS011;58320;48.804;9.252;2023-05-15T02:57:34;12.80;;;8.70;;
70733;SDS011;58320;48.804;9.252;2023-05-15T03:00:00;12.85;;;7.70;;
70733;SDS011;58320;48.804;9.252;2023-05-15T03:02:26;13.70;;;8.60;;
70733;SDS011;58320;48.804;9.252;2023-05-15T03:04:52;13.50;;;8.33;;
70733;SDS011;58320;48.804;9.252;2023-05-15T03:07:17;13.70;;;8.65;;
70733;SDS011;58320;48.804;9.252;2023-05-15T03:09:43;15.98;;;8.88;;
70733;SDS011;58320;48.804;9.252;2023-05-15T03:12:09;14.83;;;7.60;;
70733;SDS011;58320;48.804;9.252;2023-05-15T03:14:35;13.38;;;8.75;;
70733;SDS011;58320;48.804;9.252;2023-05-15T03:17:01;12.93;;;7.72;;
70733;SDS011;58320;48.804;9.252;2023-05-15T03:19:27;11.13;;;7.88;;
70733;SDS011;58320;48.804;9.252;2023-05-15T03:21:53;12.60;;;7.77;;
70733;SDS011;58320;48.804;9.252;2023-05-15T03:24:18;10.50;;;7.18;;
70733;SDS011;58320;48.804;9.252;2023-05-15T03:26:45;12.63;;;7.90;;
70733;SDS011;58320;48.804;9.252;2023-05-15T03:29:11;15.43;;;8.00;;
70733;SDS011;58320;48.804;9.252;2023-05-15T03:31:37;15.15;;;7.97;;
70733;SDS011;58320;48.804;9.252;2023-05-15T03:34:03;13.13;;;8.70;;
70733;SDS011;58320;48.804;9.252;2023-05-15T03:36:28;13.40;;;7.22;;
70733;SDS011;58320;48.804;9.252;2023-05-15T03:38:55;13.77;;;8.07;;
70733;SDS011;58320;48.804;9.252;2023-05-15T03:41:21;12.10;;;8.07;;
70733;SDS011;58320;48.804;9.252;2023-05-15T03:43:47;16.27;;;7.90;;
70733;SDS011;58320;48.804;9.252;2023-05-15T03:46:13;13.32;;;7.85;;
70733;SDS011;58320;48.804;9.252;2023-05-15T03:48:39;11.83;;;7.60;;
70733;SDS011;58320;48.804;9.252;2023-05-15T03:51:05;11.85;;;7.45;;
70733;SDS011;58320;48.804;9.252;2023-05-15T03:53:31;11.90;;;7.07;;
70733;SDS011;58320;48.804;9.252;2023-05-15T03:55:57;10.43;;;6.63;;
70733;SDS011;58320;48.804;9.252;2023-05-15T03:58:22;10.38;;;6.13;;
70733;SDS011;58320;48.804;9.252;2023-05-15T04:00:48;9.57;;;5.90;;
70733;SDS011;58320;48.804;9.252;2023-05-15T04:03:14;8.73;;;5.30;;
70733;SDS011;58320;48.804;9.252;2023-05-15T04:05:39;9.13;;;5.80;;
70733;SDS011;58320;48.804;9.252;2023-05-15T04:08:05;9.60;;;5.53;;
70733;SDS011;58320;48.804;9.252;2023-05-15T04:10:33;9.02;;;5.50;;
70733;SDS011;58320;48.804;9.252;2023-05-15T04:12:59;8.77;;;5.50;;
70733;SDS011;58320;48.804;9.252;2023-05-15T04:15:25;8.30;;;5.30;;
70733;SDS011;58320;48.804;9.252;2023-05-15T04:17:52;7.50;;;5.10;;
70733;SDS011;58320;48.804;9.252;2023-05-15T04:20:19;8.13;;;5.17;;
70733;SDS011;58320;48.804;9.252;2023-05-15T04:22:47;8.23;;;5.10;;
70733;SDS011;58320;48.804;9.252;2023-05-15T04:25:13;7.68;;;4.90;;
70733;SDS011;58320;48.804;9.252;2023-05-15T04:27:40;7.68;;;4.60;;
70733;SDS011;58320;48.804;9.252;2023-05-15T04:30:07;7.53;;;4.82;;
70733;SDS011;58320;48.804;9.252;2023-05-15T04:32:34;10.67;;;5.30;;
70733;SDS011;58320;48.804;9.252;2023-05-15T04:35:04;8.18;;;4.80;;
70733;SDS011;58320;48.804;9.252;2023-05-15T04:37:43;8.30;;;4.88;;
70733;SDS011;58320;48.804;9.252;2023-05-15T04:40:11;8.48;;;5.38;;
70733;SDS011;58320;48.804;9.252;2023-05-15T04:42:40;7.82;;;5.35;;
70733;SDS011;58320;48.804;9.252;2023-05-15T04:45:06;8.30;;;5.30;;
70733;SDS011;58320;48.804;9.252;2023-05-15T04:47:33;8.20;;;5.47;;
70733;SDS011;58320;48.804;9.252;2023-05-15T04:49:59;9.15;;;5.60;;
70733;SDS011;58320;48.804;9.252;2023-05-15T04:52:25;9.00;;;5.60;;
70733;SDS011;58320;48.804;9.252;2023-05-15T04:54:51;7.25;;;4.90;;
70733;SDS011;58320;48.804;9.252;2023-05-15T04:57:17;8.27;;;5.53;;
70733;SDS011;58320;48.804;9.252;2023-05-15T04:59:43;7.20;;;4.80;;
70733;SDS011;58320;48.804;9.252;2023-05-15T05:02:09;7.95;;;4.95;;
70733;SDS011;58320;48.804;9.252;2023-05-15T05:04:35;8.00;;;4.95;;
70733;SDS011;58320;48.804;9.252;2023-05-15T05:07:00;9.90;;;5.70;;
70733;SDS011;58320;48.804;9.252;2023-05-15T05:09:29;8.48;;;5.05;;
70733;SDS011;58320;48.804;9.252;2023-05-15T05:11:57;9.10;;;5.07;;
70733;SDS011;58320;48.804;9.252;2023-05-15T05:14:24;7.75;;;4.80;;
70733;SDS011;58320;48.804;9.252;2023-05-15T05:16:50;7.80;;;5.40;;
70733;SDS011;58320;48.804;9.252;2023-05-15T05:19:16;9.32;;;5.78;;
70733;SDS011;58320;48.804;9.252;2023-05-15T05:21:42;7.60;;;5.10;;
70733;SDS011;58320;48.804;9.252;2023-05-15T05:24:08;8.07;;;5.38;;
70733;SDS011;58320;48.804;9.252;2023-05-15T05:26:33;8.50;;;5.95;;
70733;SDS011;58320;48.804;9.252;2023-05-15T05:28:59;8.77;;;6.17;;
70733;SDS011;58320;48.804;9.252;2023-05-15T05:31:25;8.95;;;5.85;;
70733;SDS011;58320;48.804;9.252;2023-05-15T05:33:50;8.30;;;5.47;;
70733;SDS011;58320;48.804;9.252;2023-05-15T05:36:16;9.40;;;6.22;;
70733;SDS011;58320;48.804;9.252;2023-05-15T05:38:42;9.57;;;6.70;;
70733;SDS011;58320;48.804;9.252;2023-05-15T05:41:08;11.37;;;6.80;;
70733;SDS011;58320;48.804;9.252;2023-05-15T05:43:34;9.65;;;5.95;;
70733;SDS011;58320;48.804;9.252;2023-05-15T05:46:00;9.50;;;5.97;;
70733;SDS011;58320;48.804;9.252;2023-05-15T05:48:27;8.48;;;5.93;;
70733;SDS011;58320;48.804;9.252;2023-05-15T05:50:53;9.68;;;6.32;;
70733;SDS011;58320;48.804;9.252;2023-05-15T05:53:19;8.80;;;6.07;;
70733;SDS011;58320;48.804;9.252;2023-05-15T05:55:45;8.97;;;6.67;;
70733;SDS011;58320;48.804;9.252;2023-05-15T05:58:11;10.43;;;6.57;;
70733;SDS011;58320;48.804;9.252;2023-05-15T06:00:37;10.45;;;6.90;;
70733;SDS011;58320;48.804;9.252;2023-05-15T06:03:03;10.30;;;6.43;;
70733;SDS011;58320;48.804;9.252;2023-05-15T06:05:29;10.70;;;6.77;;
70733;SDS011;58320;48.804;9.252;2023-05-15T06:07:55;11.07;;;6.32;;
70733;SDS011;58320;48.804;9.252;2023-05-15T06:10:22;9.77;;;6.50;;
70733;SDS011;58320;48.804;9.252;2023-05-15T06:12:48;10.60;;;6.23;;
70733;SDS011;58320;48.804;9.252;2023-05-15T06:15:14;9.68;;;6.30;;
70733;SDS011;58320;48.804;9.252;2023-05-15T06:17:40;9.15;;;6.03;;
70733;SDS011;58320;48.804;9.252;2023-05-15T06:20:06;10.25;;;6.38;;
70733;SDS011;58320;48.804;9.252;2023-05-15T06:22:34;8.87;;;5.80;;
70733;SDS011;58320;48.804;9.252;2023-05-15T06:25:04;8.35;;;5.70;;
70733;SDS011;58320;48.804;9.252;2023-05-15T06:27:31;9.93;;;6.15;;
70733;SDS011;58320;48.804;9.252;2023-05-15T06:29:57;9.75;;;6.15;;
70733;SDS011;58320;48.804;9.252;2023-05-15T06:32:23;8.88;;;6.07;;
70733;SDS011;58320;48.804;9.252;2023-05-15T06:34:49;8.70;;;6.23;;
70733;SDS011;58320;48.804;9.252;2023-05-15T06:37:15;8.60;;;5.70;;
70733;SDS011;58320;48.804;9.252;2023-05-15T06:39:41;8.15;;;5.45;;
70733;SDS011;58320;48.804;9.252;2023-05-15T06:42:07;9.30;;;6.10;;
70733;SDS011;58320;48.804;9.252;2023-05-15T06:44:33;8.40;;;5.95;;
70733;SDS011;58320;48.804;9.252;2023-05-15T06:46:59;8.05;;;5.68;;
70733;SDS011;58320;48.804;9.252;2023-05-15T06:49:25;9.03;;;4.87;;
70733;SDS011;58320;48.804;9.252;2023-05-15T06:51:51;8.23;;;5.45;;
70733;SDS011;58320;48.804;9.252;2023-05-15T06:54:19;7.97;;;5.47;;
70733;SDS011;58320;48.804;9.252;2023-05-15T06:56:45;7.03;;;4.80;;
70733;SDS011;58320;48.804;9.252;2023-05-15T06:59:11;7.10;;;4.40;;
70733;SDS011;58320;48.804;9.252;2023-05-15T07:01:36;6.70;;;4.75;;
70733;SDS011;58320;48.804;9.252;2023-05-15T07:04:03;6.88;;;4.68;;
70733;SDS011;58320;48.804;9.252;2023-05-15T07:06:29;6.47;;;4.18;;
70733;SDS011;58320;48.804;9.252;2023-05-15T07:08:58;8.77;;;5.03;;
70733;SDS011;58320;48.804;9.252;2023-05-15T07:11:24;8.43;;;5.07;;
70733;SDS011;58320;48.804;9.252;2023-05-15T07:13:53;7.13;;;4.95;;
70733;SDS011;58320;48.804;9.252;2023-05-15T07:16:19;7.70;;;5.22;;
70733;SDS011;58320;48.804;9.252;2023-05-15T07:18:44;6.82;;;4.65;;
70733;SDS011;58320;48.804;9.252;2023-05-15T07:21:10;7.90;;;4.77;;
70733;SDS011;58320;48.804;9.252;2023-05-15T07:23:37;6.80;;;4.68;;
70733;SDS011;58320;48.804;9.252;2023-05-15T07:26:02;6.65;;;4.00;;
70733;SDS011;58320;48.804;9.252;2023-05-15T07:28:28;8.77;;;4.67;;
70733;SDS011;58320;48.804;9.252;2023-05-15T07:30:54;7.53;;;4.95;;
70733;SDS011;58320;48.804;9.252;2023-05-15T07:33:20;7.20;;;5.27;;
70733;SDS011;58320;48.804;9.252;2023-05-15T07:35:45;7.13;;;5.05;;
70733;SDS011;58320;48.804;9.252;2023-05-15T07:38:11;8.18;;;5.00;;
70733;SDS011;58320;48.804;9.252;2023-05-15T07:40:37;7.13;;;4.87;;
70733;SDS011;58320;48.804;9.252;2023-05-15T07:43:03;6.30;;;4.72;;
70733;SDS011;58320;48.804;9.252;2023-05-15T07:45:28;7.00;;;4.07;;
70733;SDS011;58320;48.804;9.252;2023-05-15T07:47:54;7.20;;;4.00;;
70733;SDS011;58320;48.804;9.252;2023-05-15T07:50:21;6.60;;;4.55;;
70733;SDS011;58320;48.804;9.252;2023-05-15T07:52:46;7.20;;;4.40;;
70733;SDS011;58320;48.804;9.252;2023-05-15T07:55:12;5.93;;;4.15;;
70733;SDS011;58320;48.804;9.252;2023-05-15T07:57:38;8.55;;;4.45;;
70733;SDS011;58320;48.804;9.252;2023-05-15T08:00:04;8.90;;;4.60;;
70733;SDS011;58320;48.804;9.252;2023-05-15T08:02:35;6.85;;;4.63;;
70733;SDS011;58320;48.804;9.252;2023-05-15T08:05:01;6.55;;;4.30;;
70733;SDS011;58320;48.804;9.252;2023-05-15T08:07:29;7.53;;;5.40;;
70733;SDS011;58320;48.804;9.252;2023-05-15T08:09:57;8.30;;;4.17;;
70733;SDS011;58320;48.804;9.252;2023-05-15T08:12:23;6.25;;;4.63;;
70733;SDS011;58320;48.804;9.252;2023-05-15T08:14:50;10.00;;;5.00;;
70733;SDS011;58320;48.804;9.252;2023-05-15T08:17:20;6.50;;;4.40;;
70733;SDS011;58320;48.804;9.252;2023-05-15T08:19:47;6.30;;;4.00;;
70733;SDS011;58320;48.804;9.252;2023-05-15T08:22:14;5.88;;;3.97;;
70733;SDS011;58320;48.804;9.252;2023-05-15T08:24:40;5.50;;;3.60;;
70733;SDS011;58320;48.804;9.252;2023-05-15T08:27:06;5.47;;;3.72;;
70733;SDS011;58320;48.804;9.252;2023-05-15T08:29:33;4.67;;;3.37;;
70733;SDS011;58320;48.804;9.252;2023-05-15T08:32:00;6.07;;;3.50;;
70733;SDS011;58320;48.804;9.252;2023-05-15T08:34:26;5.35;;;3.83;;
70733;SDS011;58320;48.804;9.252;2023-05-15T08:36:52;7.32;;;4.75;;
70733;SDS011;58320;48.804;9.252;2023-05-15T08:39:18;6.17;;;4.47;;
70733;SDS011;58320;48.804;9.252;2023-05-15T08:44:39;5.32;;;3.47;;
70733;SDS011;58320;48.804;9.252;2023-05-15T08:47:05;5.78;;;3.60;;
70733;SDS011;58320;48.804;9.252;2023-05-15T08:51:57;5.50;;;4.10;;
70733;SDS011;58320;48.804;9.252;2023-05-15T08:54:23;7.68;;;4.57;;
70733;SDS011;58320;48.804;9.252;2023-05-15T08:56:49;5.90;;;4.18;;
70733;SDS011;58320;48.804;9.252;2023-05-15T08:59:15;6.40;;;4.40;;
70733;SDS011;58320;48.804;9.252;2023-05-15T09:01:41;8.27;;;3.72;;
70733;SDS011;58320;48.804;9.252;2023-05-15T09:04:07;5.13;;;3.65;;
70733;SDS011;58320;48.804;9.252;2023-05-15T09:06:33;6.03;;;3.67;;
70733;SDS011;58320;48.804;9.252;2023-05-15T09:08:59;6.25;;;3.83;;
70733;SDS011;58320;48.804;9.252;2023-05-15T09:11:26;5.82;;;4.10;;
70733;SDS011;58320;48.804;9.252;2023-05-15T09:14:02;5.70;;;4.40;;
70733;SDS011;58320;48.804;9.252;2023-05-15T09:16:28;6.20;;;4.00;;
70733;SDS011;58320;48.804;9.252;2023-05-15T09:18:54;5.07;;;3.50;;
70733;SDS011;58320;48.804;9.252;2023-05-15T09:21:23;5.95;;;3.90;;
70733;SDS011;58320;48.804;9.252;2023-05-15T09:23:51;5.53;;;4.10;;
70733;SDS011;58320;48.804;9.252;2023-05-15T09:26:19;5.40;;;4.00;;
70733;SDS011;58320;48.804;9.252;2023-05-15T09:28:46;6.50;;;4.30;;
70733;SDS011;58320;48.804;9.252;2023-05-15T09:31:12;5.50;;;4.07;;
70733;SDS011;58320;48.804;9.252;2023-05-15T09:33:39;6.00;;;4.05;;
70733;SDS011;58320;48.804;9.252;2023-05-15T09:36:06;7.20;;;4.03;;
70733;SDS011;58320;48.804;9.252;2023-05-15T09:38:34;5.70;;;4.10;;
70733;SDS011;58320;48.804;9.252;2023-05-15T09:41:06;6.30;;;3.97;;
70733;SDS011;58320;48.804;9.252;2023-05-15T09:43:34;6.47;;;3.85;;
70733;SDS011;58320;48.804;9.252;2023-05-15T09:46:03;7.15;;;4.53;;
70733;SDS011;58320;48.804;9.252;2023-05-15T09:48:30;5.47;;;3.95;;
70733;SDS011;58320;48.804;9.252;2023-05-15T09:50:56;5.75;;;4.40;;
70733;SDS011;58320;48.804;9.252;2023-05-15T09:53:22;5.33;;;3.67;;
70733;SDS011;58320;48.804;9.252;2023-05-15T09:55:49;5.68;;;4.00;;
70733;SDS011;58320;48.804;9.252;2023-05-15T09:58:16;5.28;;;3.97;;
70733;SDS011;58320;48.804;9.252;2023-05-15T10:00:44;6.65;;;3.67;;
70733;SDS011;58320;48.804;9.252;2023-05-15T10:03:11;5.45;;;4.00;;
70733;SDS011;58320;48.804;9.252;2023-05-15T10:05:38;6.00;;;4.10;;
70733;SDS011;58320;48.804;9.252;2023-05-15T10:08:04;6.05;;;3.95;;
70733;SDS011;58320;48.804;9.252;2023-05-15T10:10:30;5.38;;;3.90;;
70733;SDS011;58320;48.804;9.252;2023-05-15T10:12:57;5.38;;;3.72;;
70733;SDS011;58320;48.804;9.252;2023-05-15T10:15:28;6.57;;;4.13;;
70733;SDS011;58320;48.804;9.252;2023-05-15T10:17:55;5.67;;;3.93;;
70733;SDS011;58320;48.804;9.252;2023-05-15T10:20:22;5.28;;;3.97;;
70733;SDS011;58320;48.804;9.252;2023-05-15T10:22:53;6.03;;;4.00;;
70733;SDS011;58320;48.804;9.252;2023-05-15T10:28:17;6.03;;;4.00;;
70733;SDS011;58320;48.804;9.252;2023-05-15T10:30:44;4.93;;;3.80;;
70733;SDS011;58320;48.804;9.252;2023-05-15T10:33:10;5.75;;;3.70;;
70733;SDS011;58320;48.804;9.252;2023-05-15T10:35:38;5.57;;;3.97;;
70733;SDS011;58320;48.804;9.252;2023-05-15T10:38:04;6.15;;;3.78;;
70733;SDS011;58320;48.804;9.252;2023-05-15T10:40:31;5.18;;;3.90;;
70733;SDS011;58320;48.804;9.252;2023-05-15T10:43:01;5.47;;;3.70;;
70733;SDS011;58320;48.804;9.252;2023-05-15T10:45:29;4.57;;;3.00;;
70733;SDS011;58320;48.804;9.252;2023-05-15T10:47:56;4.78;;;3.00;;
70733;SDS011;58320;48.804;9.252;2023-05-15T10:50:22;3.90;;;2.72;;
70733;SDS011;58320;48.804;9.252;2023-05-15T10:52:51;4.88;;;3.50;;
70733;SDS011;58320;48.804;9.252;2023-05-15T10:55:19;5.17;;;3.30;;
70733;SDS011;58320;48.804;9.252;2023-05-15T10:57:47;4.63;;;3.30;;
70733;SDS011;58320;48.804;9.252;2023-05-15T11:02:47;4.80;;;3.38;;
70733;SDS011;58320;48.804;9.252;2023-05-15T11:05:17;4.50;;;3.15;;
70733;SDS011;58320;48.804;9.252;2023-05-15T11:08:07;5.17;;;3.10;;
70733;SDS011;58320;48.804;9.252;2023-05-15T11:10:49;6.53;;;3.70;;
70733;SDS011;58320;48.804;9.252;2023-05-15T11:13:15;4.60;;;2.90;;
70733;SDS011;58320;48.804;9.252;2023-05-15T11:15:45;4.28;;;3.08;;
70733;SDS011;58320;48.804;9.252;2023-05-15T11:18:12;5.18;;;3.50;;
70733;SDS011;58320;48.804;9.252;2023-05-15T11:23:16;4.40;;;3.03;;
70733;SDS011;58320;48.804;9.252;2023-05-15T11:25:51;4.32;;;3.10;;
70733;SDS011;58320;48.804;9.252;2023-05-15T11:28:23;4.10;;;3.00;;
70733;SDS011;58320;48.804;9.252;2023-05-15T11:30:50;5.88;;;2.97;;
70733;SDS011;58320;48.804;9.252;2023-05-15T11:33:24;5.50;;;3.50;;
70733;SDS011;58320;48.804;9.252;2023-05-15T11:35:59;4.80;;;3.30;;
70733;SDS011;58320;48.804;9.252;2023-05-15T11:38:25;5.82;;;3.10;;
70733;SDS011;58320;48.804;9.252;2023-05-15T11:40:53;5.25;;;3.63;;
70733;SDS011;58320;48.804;9.252;2023-05-15T11:45:54;4.32;;;3.00;;
70733;SDS011;58320;48.804;9.252;2023-05-15T11:48:40;4.22;;;3.00;;
70733;SDS011;58320;48.804;9.252;2023-05-15T11:51:14;4.60;;;3.00;;
70733;SDS011;58320;48.804;9.252;2023-05-15T11:53:51;4.22;;;2.92;;
70733;SDS011;58320;48.804;9.252;2023-05-15T11:56:19;4.53;;;3.20;;
70733;SDS011;58320;48.804;9.252;2023-05-15T11:58:54;4.63;;;3.13;;
70733;SDS011;58320;48.804;9.252;2023-05-15T12:01:22;4.65;;;3.38;;
70733;SDS011;58320;48.804;9.252;2023-05-15T12:03:48;4.67;;;3.20;;
70733;SDS011;58320;48.804;9.252;2023-05-15T12:06:15;4.17;;;3.30;;
70733;SDS011;58320;48.804;9.252;2023-05-15T12:08:41;5.47;;;3.00;;
70733;SDS011;58320;48.804;9.252;2023-05-15T12:11:07;5.03;;;3.10;;
70733;SDS011;58320;48.804;9.252;2023-05-15T12:13:36;4.97;;;3.13;;
70733;SDS011;58320;48.804;9.252;2023-05-15T12:16:02;4.07;;;2.97;;
70733;SDS011;58320;48.804;9.252;2023-05-15T12:18:31;6.80;;;2.90;;
70733;SDS011;58320;48.804;9.252;2023-05-15T12:20:58;3.95;;;2.80;;
70733;SDS011;58320;48.804;9.252;2023-05-15T12:23:24;3.97;;;2.88;;
70733;SDS011;58320;48.804;9.252;2023-05-15T12:25:54;6.03;;;3.03;;
70733;SDS011;58320;48.804;9.252;2023-05-15T12:28:24;4.65;;;3.40;;
70733;SDS011;58320;48.804;9.252;2023-05-15T12:30:50;5.40;;;2.90;;
70733;SDS011;58320;48.804;9.252;2023-05-15T12:33:17;4.20;;;2.70;;
70733;SDS011;58320;48.804;9.252;2023-05-15T12:35:43;3.88;;;2.67;;
70733;SDS011;58320;48.804;9.252;2023-05-15T12:38:17;6.13;;;2.90;;
70733;SDS011;58320;48.804;9.252;2023-05-15T12:40:46;3.88;;;2.63;;
70733;SDS011;58320;48.804;9.252;2023-05-15T12:43:17;5.63;;;3.10;;
70733;SDS011;58320;48.804;9.252;2023-05-15T12:45:43;5.30;;;3.17;;
70733;SDS011;58320;48.804;9.252;2023-05-15T12:48:13;5.70;;;2.97;;
70733;SDS011;58320;48.804;9.252;2023-05-15T12:50:39;4.70;;;3.20;;
70733;SDS011;58320;48.804;9.252;2023-05-15T12:53:08;6.00;;;3.13;;
70733;SDS011;58320;48.804;9.252;2023-05-15T12:55:42;6.68;;;3.20;;
70733;SDS011;58320;48.804;9.252;2023-05-15T12:58:11;5.55;;;3.33;;
70733;SDS011;58320;48.804;9.252;2023-05-15T13:00:42;3.70;;;2.97;;
70733;SDS011;58320;48.804;9.252;2023-05-15T13:03:12;5.72;;;2.92;;
70733;SDS011;58320;48.804;9.252;2023-05-15T13:05:40;6.17;;;2.93;;
70733;SDS011;58320;48.804;9.252;2023-05-15T13:08:08;3.85;;;2.67;;
70733;SDS011;58320;48.804;9.252;2023-05-15T13:10:39;3.83;;;2.50;;
70733;SDS011;58320;48.804;9.252;2023-05-15T13:13:04;5.30;;;2.60;;
70733;SDS011;58320;48.804;9.252;2023-05-15T13:15:34;4.20;;;2.80;;
70733;SDS011;58320;48.804;9.252;2023-05-15T13:18:09;8.57;;;3.55;;
70733;SDS011;58320;48.804;9.252;2023-05-15T13:20:46;5.72;;;3.30;;
70733;SDS011;58320;48.804;9.252;2023-05-15T13:23:15;7.55;;;3.70;;
70733;SDS011;58320;48.804;9.252;2023-05-15T13:25:44;4.40;;;3.30;;
70733;SDS011;58320;48.804;9.252;2023-05-15T13:28:11;5.75;;;4.20;;
70733;SDS011;58320;48.804;9.252;2023-05-15T13:30:38;4.72;;;3.92;;
70733;SDS011;58320;48.804;9.252;2023-05-15T13:33:07;8.38;;;3.80;;
70733;SDS011;58320;48.804;9.252;2023-05-15T13:35:35;4.93;;;3.53;;
70733;SDS011;58320;48.804;9.252;2023-05-15T13:38:02;5.70;;;3.93;;
70733;SDS011;58320;48.804;9.252;2023-05-15T13:40:28;5.85;;;3.45;;
70733;SDS011;58320;48.804;9.252;2023-05-15T13:43:01;5.45;;;3.97;;
70733;SDS011;58320;48.804;9.252;2023-05-15T13:45:27;6.68;;;3.92;;
70733;SDS011;58320;48.804;9.252;2023-05-15T13:47:55;5.47;;;3.87;;
70733;SDS011;58320;48.804;9.252;2023-05-15T13:50:21;4.82;;;3.50;;
70733;SDS011;58320;48.804;9.252;2023-05-15T13:52:47;4.55;;;3.55;;
70733;SDS011;58320;48.804;9.252;2023-05-15T13:55:13;4.75;;;3.42;;
70733;SDS011;58320;48.804;9.252;2023-05-15T13:57:39;5.37;;;3.80;;
70733;SDS011;58320;48.804;9.252;2023-05-15T14:00:08;5.65;;;4.00;;
70733;SDS011;58320;48.804;9.252;2023-05-15T14:02:39;4.38;;;3.50;;
70733;SDS011;58320;48.804;9.252;2023-05-15T14:05:07;4.90;;;3.40;;
70733;SDS011;58320;48.804;9.252;2023-05-15T14:07:36;4.00;;;3.33;;
70733;SDS011;58320;48.804;9.252;2023-05-15T14:10:02;4.80;;;3.60;;
70733;SDS011;58320;48.804;9.252;2023-05-15T14:12:29;5.05;;;3.83;;
70733;SDS011;58320;48.804;9.252;2023-05-15T14:14:56;6.57;;;3.50;;
70733;SDS011;58320;48.804;9.252;2023-05-15T14:17:23;5.28;;;3.33;;
70733;SDS011;58320;48.804;9.252;2023-05-15T14:19:49;5.63;;;3.67;;
70733;SDS011;58320;48.804;9.252;2023-05-15T14:22:15;5.17;;;3.70;;
70733;SDS011;58320;48.804;9.252;2023-05-15T14:24:40;6.95;;;3.85;;
70733;SDS011;58320;48.804;9.252;2023-05-15T14:27:06;6.10;;;3.78;;
70733;SDS011;58320;48.804;9.252;2023-05-15T14:29:32;5.20;;;3.85;;
70733;SDS011;58320;48.804;9.252;2023-05-15T14:31:58;7.07;;;3.70;;
70733;SDS011;58320;48.804;9.252;2023-05-15T14:34:24;6.35;;;3.63;;
70733;SDS011;58320;48.804;9.252;2023-05-15T14:36:49;5.83;;;4.13;;
70733;SDS011;58320;48.804;9.252;2023-05-15T14:39:16;4.57;;;3.65;;
70733;SDS011;58320;48.804;9.252;2023-05-15T14:41:42;5.82;;;3.53;;
70733;SDS011;58320;48.804;9.252;2023-05-15T14:44:09;5.18;;;3.40;;
70733;SDS011;58320;48.804;9.252;2023-05-15T14:46:35;5.13;;;3.60;;
70733;SDS011;58320;48.804;9.252;2023-05-15T14:49:02;6.53;;;3.28;;
70733;SDS011;58320;48.804;9.252;2023-05-15T14:51:28;6.38;;;4.43;;
70733;SDS011;58320;48.804;9.252;2023-05-15T14:53:55;5.55;;;4.03;;
70733;SDS011;58320;48.804;9.252;2023-05-15T14:56:21;6.43;;;3.80;;
70733;SDS011;58320;48.804;9.252;2023-05-15T14:58:47;5.80;;;3.75;;
70733;SDS011;58320;48.804;9.252;2023-05-15T15:01:14;5.93;;;3.70;;
70733;SDS011;58320;48.804;9.252;2023-05-15T15:03:40;5.47;;;3.60;;
70733;SDS011;58320;48.804;9.252;2023-05-15T15:06:08;4.70;;;3.40;;
70733;SDS011;58320;48.804;9.252;2023-05-15T15:08:34;4.87;;;3.30;;
70733;SDS011;58320;48.804;9.252;2023-05-15T15:11:00;5.55;;;3.33;;